Saint Paul, MN

8:25 AM CDT on April 19, 2015 (GMT -0500)
Villa Park Overlook | | Change Station
CLOSE
Current Station
Personal Weather Station
Location: Roseville, MN
Elevation: 965 ft
Nearby Weather Stations

Elev 965 ft 45.00 °N, 93.12 °W | Updated 1 minute ago

Overcast
Overcast
47.3 °F
Feels Like 47 °F
N
3.0
Wind Variable Wind from SSE
Gusts 11.0 mph

Today
High -- | Low -- °F
--% Chance of Precip.
Yesterday
High -- | Low -- °F
Precip. -- in
6:21 AM 8:02 PM
New Moon, 1% visible
Pressure 29.73 in
Visibility 5.0 miles
Clouds Overcast 1800 ft
Windchill 47 °F
Dew Point 46 °F
Humidity 94%
Rainfall 0.07 in
Snow Depth Not available.
UV 0 out of 12
Pollen 2.00 out of 12
Air Quality Not available.
Flu Activity Local Activity
METAR KSTP 191253Z 14009KT 5SM BR OVC018 08/07 A2974 RMK AO2 SLP068 T00830072

More Conditions Fewer Conditions

Pressure 29.73 in
Visibility 5.0 miles
Clouds Overcast 1800 ft
Windchill 47 °F
Dew Point 46 °F
Humidity 94%
Rainfall 0.07 in
Snow Depth Not available.
UV 0 out of 12
Pollen 2.00 out of 12
Air Quality Not available.
Flu Activity Local Activity
METAR KSTP 191253Z 14009KT 5SM BR OVC018 08/07 A2974 RMK AO2 SLP068 T00830072

More Conditions Fewer Conditions

10-Day Weather Forecast

Almanac

Astronomy

Apr. 19, 2015 Rise Set
Actual Time
Civil Twilight
Nautical Twilight
Astronomical Twilight
Moon
Length of Visible Light
Length of Day
Tomorrow will be .
, % of the Moon is Illuminated

Today's Extremes

State Highs State Lows

Community

WunderPhotos

Upload Photos

1,814,791 photos uploaded!

WunderBlogs® & News

Nearby

Air Quality

  Air Quality AQ Index Pollutant
Not available.

Snow Depth

Station Depth Elevation

Earthquake Activity

City Distance Mag. Time & Date
Minimum magnitude displayed is 2.5.

Coastal Water Temperatures

Place Temperature

Stations

Nearby Weather Stations

Station Location Temp. Windchill Dew Point Humidity Wind Precip. Elev Updated Type